Etusivu
METAR-TAF:

METAR-TAF

Lentoasemat :

Visbyn lentoasema

Visby, Gotlanti, Ruotsi

Leveyspiiri: 57-40N, Pituuspiiri: 018-21E, korkeus merenpinnasta: 51 m

Tämänhetkinen sää

Tämä raportti tehtiin 36 minuuttia sitten, kello 22.50 UTC
Tuuli 3 kn idästä/koillisesta
Lämpötila 2°C
Kosteus 93%
Ilmanpaine 1031 hPa
Näkyvyys 10 km tai enemmän
utua

METAR: ESSV 202250Z AUTO 07003KT 9999 BR BKN007/// OVC020/// 02/01 Q1031

Aika: 00:26 (23:26 UTC)

Sääennuste

Tämä raportti tehtiin 2 tuntia ja 56 minuuttia sitten, kello 20.30 UTC
Ennuste voimassa 20. päivästä klo 21 UTC - 20. päivään klo 23 UTC
Tuuli 5 kn idästä/koillisesta
Näkyvyys 10 km tai enemmän
Hajonneita pilviä 1800 ft:n korkeudessa
Todennäköisyys 40%
20. päivästä klo 21 UTC - 20. päivään klo 23 UTC
Hajonneita pilviä 1200 ft:n korkeudessa

TAF: ESSV 202030Z 2021/2023 06005KT 9999 BKN018 PROB40 2021/2023 BKN012

Säähavainnot ja -ennusteet yli 4000 lentoasemalta (METAR- ja TAF-raportit).

Käytössä olevat sääasemat on merkitty karttaan keltaisilla ja punaisilla pisteillä.

Aseta hiiri pisteen päälle nähdäksesi sääaseman nimen.

Klikkaa sitten nähdäksesi säähavainnot ja -ennusteet.

Kartan vaihtaminen: klikkaa mustalla rastilla varustettuja vihreitä pisteitä, niin voit zoomata sisään; viivalla varustettua vihreää pistettä, niin voit zoomata ulos tai vihreitä nuolia, niin pääset viereisille kartoille.


METAR-TAF: